Terminal Aerodrome Forecast
Issued by NWS

Home | Current Version | Previous Version | Text Only | Print | Product List | Glossary On
Versions: 1 2 3 4 5 6 7 8 9 10 11 12 13 14 15 16 17 18 19 20 21
517
FTUS41 KPBZ 092338
TAFHLG
TAF
KHLG 092338Z 1000/1024 27012KT 5SM -SN OVC020
     FM100200 25008KT P6SM BKN025
     FM102000 25007KT P6SM SCT050=

USA.gov is the U.S. government's official web portal to all federal, state and local government web resources and services.